Time;durP1;ratioP1;P1;durP2;ratioP2;P2;SDS_P1;SDS_P2;PMS_P1;PMS_P2;Temp;Humidity;BMP_temperature;BMP_pressure;BME280_temperature;BME280_humidity;BME280_pressure;Samples;Min_cycle;Max_cycle;Signal;HPM_P1;HPM_P2
2023/05/07 00:01:48;;;;;;;2.83;1.50;;;21.50;60.80;;;;;;5062553;28;20657;-44
2023/05/07 00:04:18;;;;;;;2.27;1.50;;;21.50;60.80;;;;;;5077280;28;20223;-44
2023/05/07 00:06:48;;;;;;;1.30;1.20;;;21.50;60.80;;;;;;5072008;28;20223;-44
2023/05/07 00:09:18;;;;;;;2.50;1.50;;;21.50;60.70;;;;;;5088934;28;20539;-44
2023/05/07 00:11:49;;;;;;;1.60;1.43;;;21.50;60.80;;;;;;5054777;28;20202;-44
2023/05/07 00:14:20;;;;;;;2.47;1.47;;;21.40;60.80;;;;;;5054004;28;20217;-45
2023/05/07 00:16:52;;;;;;;2.27;1.60;;;21.40;60.80;;;;;;5056272;28;20190;-45
2023/05/07 00:19:22;;;;;;;2.83;1.73;;;21.40;60.90;;;;;;5067595;28;20611;-45
2023/05/07 00:21:53;;;;;;;3.20;1.30;;;21.40;60.90;;;;;;5063443;28;20197;-45
2023/05/07 00:24:24;;;;;;;2.03;1.23;;;21.40;60.80;;;;;;5071029;28;20194;-44
2023/05/07 00:26:59;;;;;;;2.17;1.30;;;21.40;60.90;;;;;;5075360;28;20198;-44
2023/05/07 00:29:30;;;;;;;2.93;1.30;;;21.40;60.90;;;;;;5071048;28;20603;-44
2023/05/07 00:32:03;;;;;;;1.97;1.30;;;21.40;60.90;;;;;;5069565;28;20186;-44
2023/05/07 00:34:34;;;;;;;1.90;1.50;;;21.40;61.00;;;;;;5068784;28;20243;-45
2023/05/07 00:37:07;;;;;;;2.03;1.53;;;21.40;61.00;;;;;;5054435;28;20202;-45
2023/05/07 00:39:39;;;;;;;2.03;1.33;;;21.40;60.90;;;;;;5070596;28;20218;-45
2023/05/07 00:42:10;;;;;;;2.80;1.60;;;21.40;61.00;;;;;;5074507;28;20197;-45
2023/05/07 00:44:40;;;;;;;2.13;1.53;;;21.40;61.00;;;;;;5071344;28;20215;-44
2023/05/07 00:47:14;;;;;;;2.80;1.70;;;21.40;60.90;;;;;;5055298;28;20225;-45
2023/05/07 00:49:43;;;;;;;1.87;1.30;;;21.40;60.90;;;;;;5070424;28;20595;-44
2023/05/07 00:52:25;;;;;;;2.60;1.70;;;21.40;60.90;;;;;;5054406;28;20547;-44
2023/05/07 00:54:57;;;;;;;2.27;1.37;;;21.40;61.00;;;;;;5064182;28;20226;-45
2023/05/07 00:57:36;;;;;;;2.57;1.47;;;21.30;60.90;;;;;;5052279;28;20205;-45
2023/05/07 01:00:13;;;;;;;2.77;1.40;;;21.40;61.00;;;;;;5052432;28;20598;-44
2023/05/07 01:02:44;;;;;;;1.57;1.27;;;21.30;61.00;;;;;;5052889;28;20228;-44
2023/05/07 01:05:17;;;;;;;3.07;1.43;;;21.40;61.00;;;;;;5070248;28;20767;-44
2023/05/07 01:07:46;;;;;;;1.80;1.47;;;21.40;61.00;;;;;;5046195;28;20197;-44
2023/05/07 01:10:15;;;;;;;2.90;1.30;;;21.40;61.00;;;;;;5063436;28;20221;-45
2023/05/07 01:12:49;;;;;;;1.53;1.30;;;21.40;61.00;;;;;;5063701;28;20190;-44
2023/05/07 01:15:21;;;;;;;2.43;1.43;;;21.40;61.00;;;;;;5071164;28;20274;-44
2023/05/07 01:17:53;;;;;;;1.50;1.20;;;21.30;60.90;;;;;;5053032;28;20235;-44
2023/05/07 01:20:27;;;;;;;2.23;1.33;;;21.30;61.50;;;;;;5070182;28;20186;-44
2023/05/07 01:23:00;;;;;;;1.77;1.30;;;21.40;61.00;;;;;;5062202;28;20255;-44
2023/05/07 01:25:33;;;;;;;1.80;1.70;;;21.30;60.90;;;;;;5062073;28;20198;-45
2023/05/07 01:28:02;;;;;;;3.07;1.60;;;21.30;61.00;;;;;;5069669;28;20201;-44
2023/05/07 01:30:32;;;;;;;2.43;1.50;;;21.30;61.00;;;;;;5073518;28;20233;-44
2023/05/07 01:33:28;;;;;;;2.03;1.40;;;21.40;61.00;;;;;;5027833;28;20623;-45
2023/05/07 01:36:00;;;;;;;2.80;1.40;;;21.30;60.90;;;;;;5057604;28;20229;-44
2023/05/07 01:38:41;;;;;;;1.50;1.40;;;21.30;61.00;;;;;;5054024;28;20548;-44
2023/05/07 01:41:12;;;;;;;1.87;1.40;;;21.30;61.00;;;;;;5062583;28;20219;-44
2023/05/07 01:43:42;;;;;;;1.43;1.33;;;21.30;61.00;;;;;;5071251;28;20182;-44
2023/05/07 01:46:12;;;;;;;2.83;1.50;;;21.30;61.00;;;;;;5032848;28;20202;-45
2023/05/07 01:49:00;;;;;;;1.90;1.33;;;21.30;61.00;;;;;;5035907;28;20194;-45
2023/05/07 01:51:36;;;;;;;1.90;1.50;;;21.30;61.00;;;;;;5083602;28;20198;-44
2023/05/07 01:54:06;;;;;;;2.50;1.60;;;21.30;61.10;;;;;;5042836;28;20245;-44
2023/05/07 01:56:34;;;;;;;2.60;1.60;;;21.30;61.10;;;;;;5061591;28;20189;-44
2023/05/07 01:59:05;;;;;;;2.03;1.60;;;21.20;61.10;;;;;;5059077;28;20213;-45
2023/05/07 02:01:36;;;;;;;1.77;1.40;;;21.30;61.10;;;;;;5042796;28;20206;-44
2023/05/07 02:04:07;;;;;;;1.73;1.50;;;21.20;61.10;;;;;;5046176;28;20260;-44
2023/05/07 02:06:41;;;;;;;1.43;1.33;;;21.30;61.10;;;;;;5058098;28;20193;-44
2023/05/07 02:09:11;;;;;;;3.13;1.60;;;21.20;61.10;;;;;;5064204;28;20205;-44
2023/05/07 02:11:46;;;;;;;2.70;1.63;;;21.20;61.10;;;;;;5046907;28;20210;-45
2023/05/07 02:14:17;;;;;;;2.47;1.53;;;21.20;61.10;;;;;;5052424;28;20198;-45
2023/05/07 02:16:47;;;;;;;2.67;1.50;;;21.20;61.10;;;;;;5048582;28;20212;-45
2023/05/07 02:19:20;;;;;;;2.63;1.50;;;21.20;61.10;;;;;;5048609;28;20218;-44
2023/05/07 02:21:51;;;;;;;2.07;1.50;;;21.20;61.10;;;;;;5054079;28;20197;-44
2023/05/07 02:24:21;;;;;;;2.40;1.53;;;21.20;61.10;;;;;;5055650;28;20228;-45
2023/05/07 02:26:52;;;;;;;1.73;1.37;;;21.20;61.10;;;;;;5068501;28;20194;-45
2023/05/07 02:29:24;;;;;;;2.17;1.60;;;21.20;61.10;;;;;;5056627;28;20197;-45
2023/05/07 02:31:55;;;;;;;1.90;1.53;;;21.20;61.10;;;;;;5052543;28;20183;-45
2023/05/07 02:34:33;;;;;;;2.23;1.33;;;21.20;61.10;;;;;;5034947;28;20214;-45
2023/05/07 02:37:03;;;;;;;1.97;1.40;;;21.20;61.10;;;;;;5051147;28;20191;-44
2023/05/07 02:39:37;;;;;;;1.50;1.40;;;21.20;61.10;;;;;;5049371;28;20742;-44
2023/05/07 02:42:07;;;;;;;2.07;1.50;;;21.20;61.10;;;;;;5048897;28;20244;-45
2023/05/07 02:44:38;;;;;;;2.23;1.73;;;21.20;61.10;;;;;;5053869;28;20216;-45
2023/05/07 02:47:12;;;;;;;3.30;1.70;;;21.20;61.10;;;;;;5052373;28;20561;-44
2023/05/07 02:49:43;;;;;;;2.27;1.60;;;21.20;61.10;;;;;;5031275;28;20241;-44
2023/05/07 02:52:15;;;;;;;1.60;1.50;;;21.20;61.10;;;;;;5044665;28;20194;-45
2023/05/07 02:54:46;;;;;;;1.53;1.43;;;21.10;61.10;;;;;;5059050;28;20229;-44
2023/05/07 02:57:16;;;;;;;1.50;1.30;;;21.20;61.20;;;;;;5073589;28;20201;-44
2023/05/07 02:59:50;;;;;;;1.50;1.40;;;21.20;61.90;;;;;;5057444;28;20205;-44
2023/05/07 03:02:21;;;;;;;2.03;1.70;;;21.10;61.10;;;;;;5068350;28;20192;-44
2023/05/07 03:04:52;;;;;;;1.53;1.33;;;21.20;61.30;;;;;;5067665;28;20226;-45
2023/05/07 03:07:23;;;;;;;3.80;1.80;;;21.20;61.30;;;;;;5077195;28;20243;-44
2023/05/07 03:09:53;;;;;;;2.43;1.60;;;21.10;61.20;;;;;;5066658;28;20656;-44
2023/05/07 03:12:24;;;;;;;2.20;1.63;;;21.10;61.30;;;;;;5069034;28;20209;-44
2023/05/07 03:14:56;;;;;;;2.00;1.60;;;21.10;61.20;;;;;;5069146;28;20889;-45
2023/05/07 03:17:34;;;;;;;1.40;1.30;;;21.10;60.60;;;;;;5064159;28;20509;-45
2023/05/07 03:20:03;;;;;;;2.03;1.50;;;21.10;61.20;;;;;;5067411;28;20206;-44
2023/05/07 03:22:34;;;;;;;1.70;1.60;;;21.10;61.20;;;;;;5061823;28;20237;-44
2023/05/07 03:25:04;;;;;;;2.13;1.60;;;21.10;61.20;;;;;;5068113;28;20194;-44
2023/05/07 03:27:34;;;;;;;2.50;1.70;;;21.10;61.20;;;;;;5075335;28;20197;-45
2023/05/07 03:30:08;;;;;;;2.30;1.50;;;21.10;61.30;;;;;;5079643;28;20205;-45
2023/05/07 03:32:39;;;;;;;2.43;1.53;;;21.10;61.20;;;;;;5076686;28;20223;-44
2023/05/07 03:35:11;;;;;;;2.33;1.73;;;21.10;61.30;;;;;;5066517;28;20213;-44
2023/05/07 03:37:40;;;;;;;3.63;1.80;;;21.10;61.20;;;;;;5079547;28;20558;-44
2023/05/07 03:40:08;;;;;;;2.57;1.77;;;21.10;61.20;;;;;;5054748;28;20321;-44
2023/05/07 03:42:40;;;;;;;2.17;1.97;;;21.10;61.30;;;;;;5088313;28;20285;-45
2023/05/07 03:45:14;;;;;;;2.57;1.70;;;21.10;61.30;;;;;;5057361;28;20216;-45
2023/05/07 03:47:41;;;;;;;2.27;1.90;;;21.10;61.20;;;;;;5073110;28;20590;-45
2023/05/07 03:50:11;;;;;;;1.97;1.60;;;21.10;61.20;;;;;;5076927;28;21159;-45
2023/05/07 03:52:47;;;;;;;1.93;1.77;;;21.10;61.20;;;;;;5070233;28;20637;-45
2023/05/07 03:58:55;;;;;;;2.80;1.70;;;21.10;61.20;;;;;;5060407;28;20260;-45
2023/05/07 04:01:31;;;;;;;1.57;1.47;;;21.00;61.30;;;;;;5079549;28;20185;-44
2023/05/07 04:04:00;;;;;;;1.70;1.57;;;21.00;61.30;;;;;;5072084;28;20196;-44
2023/05/07 04:06:29;;;;;;;2.00;1.70;;;21.00;61.30;;;;;;5091933;28;20208;-44
2023/05/07 04:09:01;;;;;;;2.67;1.80;;;21.10;61.90;;;;;;5069512;28;20255;-44
2023/05/07 04:11:35;;;;;;;2.10;1.70;;;21.10;61.30;;;;;;5075176;28;20205;-44
2023/05/07 04:14:06;;;;;;;3.03;1.70;;;21.00;61.20;;;;;;5047870;28;20186;-44
2023/05/07 04:16:35;;;;;;;1.90;1.70;;;21.10;61.30;;;;;;5067647;28;20656;-44
2023/05/07 04:19:04;;;;;;;1.90;1.70;;;21.00;61.20;;;;;;5067069;28;20205;-44
2023/05/07 04:21:35;;;;;;;1.97;1.60;;;21.10;61.30;;;;;;5068064;28;20531;-44
2023/05/07 04:24:05;;;;;;;1.90;1.60;;;21.10;61.20;;;;;;5062896;28;20816;-45
2023/05/07 04:26:32;;;;;;;2.10;1.70;;;21.00;61.20;;;;;;5051749;28;20227;-44
2023/05/07 04:29:01;;;;;;;2.27;1.80;;;21.00;61.20;;;;;;5071247;28;20228;-45
2023/05/07 04:31:32;;;;;;;2.70;1.60;;;21.00;61.20;;;;;;5070091;28;20194;-45
2023/05/07 04:34:03;;;;;;;1.70;1.60;;;21.00;61.10;;;;;;5062674;28;20201;-44
2023/05/07 04:36:34;;;;;;;2.53;1.93;;;21.10;61.20;;;;;;5072442;28;20217;-44
2023/05/07 04:39:06;;;;;;;1.70;1.60;;;21.00;61.20;;;;;;5064971;28;20255;-44
2023/05/07 04:41:38;;;;;;;2.00;1.77;;;21.00;61.30;;;;;;5063274;28;20430;-43
2023/05/07 04:44:09;;;;;;;2.17;1.67;;;21.00;61.40;;;;;;5051761;28;20553;-43
2023/05/07 04:46:38;;;;;;;2.33;1.97;;;21.00;61.30;;;;;;5078525;28;20215;-44
2023/05/07 04:49:06;;;;;;;2.20;2.00;;;21.00;61.30;;;;;;5053758;28;20331;-43
2023/05/07 04:51:36;;;;;;;2.87;2.00;;;21.00;61.30;;;;;;5072911;28;20592;-43
2023/05/07 04:54:05;;;;;;;2.23;1.67;;;21.00;61.20;;;;;;5068354;28;20246;-43
2023/05/07 04:56:36;;;;;;;2.73;1.80;;;21.00;61.30;;;;;;5078671;28;20217;-43
2023/05/07 04:59:09;;;;;;;2.50;1.90;;;21.00;61.20;;;;;;5078956;28;20312;-43
2023/05/07 05:01:40;;;;;;;2.00;1.80;;;21.00;61.20;;;;;;5071525;28;20185;-43
2023/05/07 05:04:08;;;;;;;2.60;1.70;;;21.00;61.20;;;;;;5073733;28;21088;-44
2023/05/07 05:06:40;;;;;;;2.67;1.60;;;21.00;61.10;;;;;;5078540;28;20645;-44
2023/05/07 05:09:10;;;;;;;2.97;1.97;;;21.00;61.20;;;;;;5073953;28;20201;-44
2023/05/07 05:11:41;;;;;;;2.17;1.50;;;21.00;61.10;;;;;;5069551;28;20217;-43
2023/05/07 05:14:10;;;;;;;2.57;1.80;;;21.00;61.10;;;;;;5062917;28;20223;-43
2023/05/07 05:16:40;;;;;;;2.90;2.13;;;21.00;61.10;;;;;;5070977;28;20210;-43
2023/05/07 05:19:11;;;;;;;2.97;1.87;;;21.00;61.00;;;;;;5073996;28;20280;-43
2023/05/07 05:21:42;;;;;;;2.30;1.90;;;21.00;61.00;;;;;;5078698;28;20252;-43
2023/05/07 05:24:15;;;;;;;2.07;1.90;;;21.00;61.10;;;;;;5074478;28;20392;-43
2023/05/07 05:26:47;;;;;;;1.70;1.60;;;21.00;61.10;;;;;;5067579;28;20194;-43
2023/05/07 05:29:17;;;;;;;3.70;2.00;;;21.00;61.00;;;;;;5081988;28;20224;-43
2023/05/07 05:31:46;;;;;;;2.10;1.60;;;21.00;61.10;;;;;;5070156;28;20190;-43
2023/05/07 05:34:19;;;;;;;2.30;1.80;;;21.00;61.10;;;;;;5067070;28;20209;-43
2023/05/07 05:36:50;;;;;;;2.03;1.70;;;21.00;61.10;;;;;;5062084;28;20400;-44
2023/05/07 05:39:23;;;;;;;2.53;1.53;;;21.00;61.00;;;;;;5072947;28;20295;-44
2023/05/07 05:41:52;;;;;;;2.10;1.90;;;21.00;61.00;;;;;;5044731;28;20186;-44
2023/05/07 05:44:22;;;;;;;2.73;2.13;;;21.00;61.00;;;;;;5068596;28;20209;-43
2023/05/07 05:46:57;;;;;;;1.67;1.57;;;21.00;61.00;;;;;;5081119;28;20225;-44
2023/05/07 05:49:43;;;;;;;2.13;1.83;;;21.00;61.00;;;;;;5080375;28;20226;-44
2023/05/07 05:52:16;;;;;;;1.90;1.80;;;21.00;61.00;;;;;;5072935;28;20615;-44
2023/05/07 05:54:49;;;;;;;2.70;2.00;;;21.00;61.00;;;;;;5072423;28;20784;-44
2023/05/07 05:57:20;;;;;;;2.00;1.80;;;21.00;61.00;;;;;;5069714;28;20365;-43
2023/05/07 05:59:57;;;;;;;2.10;1.90;;;21.00;61.00;;;;;;5064802;28;20206;-43
2023/05/07 06:02:28;;;;;;;3.10;2.17;;;21.00;61.00;;;;;;5068576;28;20798;-43
2023/05/07 06:05:00;;;;;;;2.83;1.90;;;21.00;61.00;;;;;;5069816;28;20189;-44
2023/05/07 06:07:31;;;;;;;2.00;1.80;;;21.00;61.00;;;;;;5070231;28;20228;-44
2023/05/07 06:10:02;;;;;;;1.63;1.50;;;21.00;61.00;;;;;;5071971;28;20220;-44
2023/05/07 06:12:31;;;;;;;2.90;2.00;;;21.00;60.90;;;;;;5048201;28;20206;-43
2023/05/07 06:14:59;;;;;;;2.10;1.90;;;21.00;60.90;;;;;;5052008;28;20627;-44
2023/05/07 06:17:35;;;;;;;3.37;2.07;;;21.00;60.90;;;;;;5075178;28;20224;-44
2023/05/07 06:20:16;;;;;;;1.97;1.60;;;21.00;60.90;;;;;;5071520;28;20201;-44
2023/05/07 06:22:47;;;;;;;2.20;1.90;;;21.00;61.00;;;;;;5051580;28;20238;-43
2023/05/07 06:25:19;;;;;;;2.63;2.00;;;21.00;60.90;;;;;;5078988;28;20201;-43
2023/05/07 06:27:49;;;;;;;3.10;1.80;;;21.00;60.90;;;;;;5078950;28;21441;-43
2023/05/07 06:30:17;;;;;;;2.30;2.07;;;21.00;60.90;;;;;;5083811;28;20262;-43
2023/05/07 06:32:46;;;;;;;1.90;1.80;;;21.00;60.90;;;;;;5088255;28;20606;-44
2023/05/07 06:35:16;;;;;;;1.63;1.53;;;21.00;60.90;;;;;;5068175;28;20248;-44
2023/05/07 06:37:45;;;;;;;2.00;1.90;;;21.00;60.90;;;;;;5088233;28;20444;-43
2023/05/07 06:40:13;;;;;;;2.20;2.00;;;21.00;60.90;;;;;;5087882;28;20621;-42
2023/05/07 06:42:43;;;;;;;2.00;1.80;;;21.00;60.90;;;;;;5075318;28;20181;-44
2023/05/07 06:45:14;;;;;;;2.33;1.90;;;21.00;60.90;;;;;;5077549;28;20229;-44
2023/05/07 06:47:43;;;;;;;5.53;1.87;;;21.00;60.90;;;;;;5078231;28;20202;-43
2023/05/07 06:50:13;;;;;;;1.73;1.63;;;21.00;60.90;;;;;;5076814;28;20255;-44
2023/05/07 06:52:44;;;;;;;2.13;1.60;;;21.00;60.90;;;;;;5072833;28;20200;-44
2023/05/07 06:55:14;;;;;;;2.20;2.00;;;21.10;60.90;;;;;;5077705;28;20218;-44
2023/05/07 06:57:41;;;;;;;2.30;2.00;;;21.00;60.90;;;;;;5073160;28;20781;-44
2023/05/07 07:00:15;;;;;;;2.00;1.80;;;21.00;60.80;;;;;;5063002;28;20209;-44
2023/05/07 07:02:47;;;;;;;1.97;1.80;;;21.00;60.80;;;;;;5078304;28;20192;-44
2023/05/07 07:05:16;;;;;;;2.73;2.00;;;21.00;60.80;;;;;;5082819;28;20189;-44
2023/05/07 07:07:52;;;;;;;2.00;1.80;;;21.10;60.90;;;;;;5070750;28;20222;-44
2023/05/07 07:10:35;;;;;;;2.10;1.90;;;21.10;60.90;;;;;;5063298;28;20314;-44
2023/05/07 07:13:09;;;;;;;2.30;1.80;;;21.00;60.80;;;;;;5067754;28;20201;-44
2023/05/07 07:15:39;;;;;;;1.60;1.50;;;21.10;60.90;;;;;;5076009;28;20239;-44
2023/05/07 07:18:09;;;;;;;2.10;1.90;;;21.10;60.90;;;;;;5073741;28;20789;-44
2023/05/07 07:20:39;;;;;;;2.67;1.90;;;21.10;60.80;;;;;;5076239;28;20185;-44
2023/05/07 07:23:11;;;;;;;1.70;1.60;;;21.10;60.90;;;;;;5067330;28;20209;-44
2023/05/07 07:25:39;;;;;;;1.83;1.60;;;21.10;60.80;;;;;;5068116;28;20202;-43
2023/05/07 07:28:10;;;;;;;2.10;1.90;;;21.10;60.90;;;;;;5065423;28;20209;-44
2023/05/07 07:30:42;;;;;;;2.43;2.23;;;21.10;60.80;;;;;;5051115;28;20201;-44
2023/05/07 07:33:26;;;;;;;2.33;1.70;;;21.10;60.80;;;;;;5067499;28;20194;-44
2023/05/07 07:35:58;;;;;;;2.03;1.83;;;21.10;60.80;;;;;;5063784;28;20206;-44
2023/05/07 07:38:38;;;;;;;2.00;1.77;;;21.10;60.80;;;;;;5062556;28;20225;-44
2023/05/07 07:41:10;;;;;;;2.53;1.67;;;21.10;60.80;;;;;;5052620;28;20197;-44
2023/05/07 07:43:37;;;;;;;1.70;1.60;;;21.10;60.80;;;;;;5068720;28;20206;-44
2023/05/07 07:46:08;;;;;;;2.73;2.00;;;21.20;60.90;;;;;;5055204;28;20197;-44
2023/05/07 07:48:40;;;;;;;1.50;1.40;;;21.20;60.80;;;;;;5067017;28;20204;-44
2023/05/07 07:51:25;;;;;;;2.93;1.87;;;21.20;60.90;;;;;;5068415;28;20685;-44
2023/05/07 07:53:58;;;;;;;3.50;1.80;;;21.20;61.00;;;;;;5065771;28;20225;-44
2023/05/07 07:56:29;;;;;;;3.67;2.27;;;21.20;61.10;;;;;;5068995;28;20217;-44
2023/05/07 07:59:05;;;;;;;7.87;2.40;;;21.20;61.20;;;;;;5075396;28;20209;-44
2023/05/07 08:01:36;;;;;;;5.47;2.50;;;21.20;61.20;;;;;;5083403;28;20197;-44
2023/05/07 08:04:08;;;;;;;4.47;2.90;;;21.20;61.30;;;;;;5077811;28;20615;-44
2023/05/07 08:06:39;;;;;;;3.90;2.33;;;21.20;61.30;;;;;;5074441;28;20197;-44
2023/05/07 08:09:08;;;;;;;7.13;2.50;;;21.30;61.30;;;;;;5063189;28;20256;-44
2023/05/07 08:11:39;;;;;;;4.77;2.53;;;21.30;61.20;;;;;;5049934;28;20221;-44
2023/05/07 08:14:10;;;;;;;4.37;2.67;;;21.30;61.30;;;;;;5075716;28;20597;-44
2023/05/07 08:16:44;;;;;;;6.40;2.47;;;21.30;61.30;;;;;;5076460;28;20204;-44
2023/05/07 08:19:13;;;;;;;7.50;2.50;;;21.30;61.90;;;;;;5073322;28;20197;-44
2023/05/07 08:21:45;;;;;;;2.77;2.37;;;21.30;61.20;;;;;;5066055;28;20273;-44
2023/05/07 08:24:18;;;;;;;5.63;2.60;;;21.30;61.20;;;;;;5068389;28;20206;-44
2023/05/07 08:26:49;;;;;;;3.73;2.50;;;21.30;61.20;;;;;;5084125;28;20836;-44
2023/05/07 08:29:20;;;;;;;3.67;2.50;;;21.30;61.20;;;;;;5072444;28;20193;-44
2023/05/07 08:31:48;;;;;;;3.37;2.37;;;21.30;61.20;;;;;;5080021;28;20714;-44
2023/05/07 08:34:17;;;;;;;3.13;2.50;;;21.30;61.20;;;;;;5069169;28;20213;-44
2023/05/07 08:36:48;;;;;;;4.40;2.43;;;21.30;61.20;;;;;;5076742;28;20221;-43
2023/05/07 08:39:20;;;;;;;5.10;2.23;;;21.40;61.20;;;;;;5059578;28;20182;-44
2023/05/07 08:41:56;;;;;;;6.90;2.70;;;21.40;61.20;;;;;;5070654;28;20225;-44
2023/05/07 08:44:27;;;;;;;3.73;2.50;;;21.40;61.20;;;;;;5054617;28;20198;-44
2023/05/07 08:46:58;;;;;;;6.43;2.90;;;21.40;61.20;;;;;;5074749;28;20209;-44
2023/05/07 08:49:30;;;;;;;4.30;2.60;;;21.40;61.20;;;;;;5043061;28;20205;-44
2023/05/07 08:51:59;;;;;;;3.67;2.17;;;21.40;61.20;;;;;;5062192;28;20210;-44
2023/05/07 08:54:40;;;;;;;3.30;2.10;;;21.40;61.20;;;;;;5032903;28;20359;-44
2023/05/07 08:57:08;;;;;;;6.40;2.73;;;21.40;61.20;;;;;;5055102;28;20253;-44
2023/05/07 08:59:41;;;;;;;12.90;3.10;;;21.40;61.80;;;;;;5049244;28;20625;-44
2023/05/07 09:02:14;;;;;;;10.27;3.20;;;21.50;62.50;;;;;;5050605;28;20181;-44
2023/05/07 09:04:46;;;;;;;9.57;3.03;;;21.50;62.40;;;;;;5044221;28;20210;-44
2023/05/07 09:07:13;;;;;;;14.63;3.50;;;21.50;62.30;;;;;;5054379;28;20245;-44
2023/05/07 09:09:44;;;;;;;10.80;3.33;;;21.40;62.10;;;;;;5058243;28;20214;-44
2023/05/07 09:12:12;;;;;;;10.43;3.30;;;21.50;62.30;;;;;;5011878;28;20215;-44
2023/05/07 09:14:42;;;;;;;5.73;2.50;;;21.50;62.30;;;;;;5038556;28;20509;-44
2023/05/07 09:17:13;;;;;;;7.67;3.20;;;21.50;62.30;;;;;;5057012;28;20246;-44
2023/05/07 09:19:50;;;;;;;7.73;3.40;;;21.50;62.30;;;;;;5050420;28;20193;-44
2023/05/07 09:22:20;;;;;;;6.87;3.37;;;21.50;62.40;;;;;;5039599;28;20218;-44
2023/05/07 09:24:53;;;;;;;7.40;3.73;;;21.50;62.20;;;;;;5050121;28;20217;-44
2023/05/07 09:27:25;;;;;;;7.87;3.40;;;21.50;62.10;;;;;;5033849;28;20248;-44
2023/05/07 09:29:56;;;;;;;9.37;3.47;;;21.50;62.10;;;;;;5026788;28;20631;-44
2023/05/07 09:32:31;;;;;;;8.87;3.47;;;21.50;62.00;;;;;;5033680;28;20224;-44
2023/05/07 09:35:04;;;;;;;7.53;3.20;;;21.60;62.10;;;;;;5023266;28;20270;-44
2023/05/07 09:37:40;;;;;;;6.27;2.80;;;21.60;62.00;;;;;;5049668;28;20237;-44
2023/05/07 09:40:25;;;;;;;7.93;2.73;;;21.60;62.10;;;;;;5018229;28;20197;-44
2023/05/07 09:43:13;;;;;;;11.43;3.40;;;21.60;62.00;;;;;;5042918;28;20526;-44
2023/05/07 09:45:56;;;;;;;9.53;3.13;;;21.60;61.90;;;;;;5036825;28;20208;-43
2023/05/07 09:48:32;;;;;;;7.80;2.70;;;21.60;61.80;;;;;;5049185;28;20637;-44
2023/05/07 09:51:03;;;;;;;4.53;2.60;;;21.60;62.40;;;;;;5044730;28;20209;-44
2023/05/07 09:53:35;;;;;;;7.90;2.97;;;21.60;61.70;;;;;;5047130;28;21597;-44
2023/05/07 09:56:09;;;;;;;5.70;2.60;;;21.60;61.70;;;;;;5063808;28;21042;-44
2023/05/07 09:58:39;;;;;;;5.27;2.63;;;21.70;61.70;;;;;;5064964;28;20746;-44
2023/05/07 10:01:10;;;;;;;5.00;2.67;;;21.70;61.70;;;;;;5066967;28;20795;-44
2023/05/07 10:03:45;;;;;;;5.57;3.17;;;21.70;61.70;;;;;;5018793;28;20692;-44
2023/05/07 10:06:22;;;;;;;5.97;2.97;;;21.70;61.50;;;;;;5068631;28;20517;-43
2023/05/07 10:08:51;;;;;;;6.17;3.03;;;21.70;61.50;;;;;;5067385;28;20194;-43
2023/05/07 10:11:23;;;;;;;4.70;2.77;;;21.70;61.50;;;;;;5062938;28;20216;-43
2023/05/07 10:13:55;;;;;;;3.50;2.23;;;21.70;61.50;;;;;;5059495;28;20213;-42
2023/05/07 10:16:31;;;;;;;3.73;2.33;;;21.70;61.50;;;;;;5068536;28;20206;-42
2023/05/07 10:19:17;;;;;;;4.80;2.40;;;21.80;61.50;;;;;;5064306;28;20209;-43
2023/05/07 10:22:02;;;;;;;3.13;2.23;;;21.80;61.60;;;;;;5061666;28;20192;-43
2023/05/07 10:24:39;;;;;;;7.47;2.50;;;21.80;61.40;;;;;;5068979;28;20722;-43
2023/05/07 10:27:21;;;;;;;5.03;2.57;;;21.80;62.30;;;;;;5082983;28;20206;-45
2023/05/07 10:30:20;;;;;;;5.63;2.53;;;21.80;61.60;;;;;;5059806;28;20202;-43
2023/05/07 10:33:05;;;;;;;3.40;2.30;;;21.80;61.80;;;;;;5066775;28;20619;-43
2023/05/07 10:35:42;;;;;;;3.63;2.10;;;21.80;61.90;;;;;;5065383;28;20204;-44
2023/05/07 10:38:13;;;;;;;3.50;2.67;;;21.90;61.60;;;;;;5063768;28;20209;-45
2023/05/07 10:40:43;;;;;;;5.03;3.00;;;21.90;61.70;;;;;;5066401;28;20207;-44
2023/05/07 10:43:14;;;;;;;6.90;3.27;;;21.90;62.20;;;;;;5054999;28;20193;-44
2023/05/07 10:46:15;;;;;;;5.77;3.00;;;21.90;64.10;;;;;;5075272;28;20316;-45
2023/05/07 10:49:03;;;;;;;4.40;2.97;;;21.90;65.00;;;;;;5066467;28;20209;-45
2023/05/07 10:51:38;;;;;;;5.50;3.57;;;21.90;65.50;;;;;;5060507;28;20213;-43
2023/05/07 10:54:21;;;;;;;5.77;3.43;;;21.90;66.50;;;;;;5063131;28;20205;-43
2023/05/07 10:57:17;;;;;;;4.53;2.80;;;21.90;66.40;;;;;;5052816;28;20226;-43
2023/05/07 10:59:54;;;;;;;4.27;2.87;;;22.00;67.30;;;;;;5063326;28;20671;-43
2023/05/07 11:02:58;;;;;;;4.77;2.67;;;22.00;67.50;;;;;;5066220;28;20294;-43
2023/05/07 11:05:31;;;;;;;3.40;2.20;;;22.00;67.90;;;;;;5060627;28;20208;-43
2023/05/07 11:08:07;;;;;;;5.07;2.90;;;22.00;68.10;;;;;;5070517;28;20642;-43
2023/05/07 11:10:58;;;;;;;3.93;2.27;;;22.00;68.20;;;;;;5064402;28;20225;-43
2023/05/07 11:13:50;;;;;;;6.00;2.77;;;22.10;68.30;;;;;;5047586;28;20198;-43
2023/05/07 11:16:24;;;;;;;4.40;2.70;;;22.00;68.40;;;;;;5064751;28;20201;-43
2023/05/07 11:18:55;;;;;;;4.80;2.60;;;22.00;68.60;;;;;;5050385;28;20209;-43
2023/05/07 11:21:41;;;;;;;7.80;2.70;;;22.00;68.80;;;;;;5068971;28;20185;-43
2023/05/07 11:24:17;;;;;;;2.20;2.00;;;22.10;68.80;;;;;;5064365;28;20204;-43
2023/05/07 11:26:51;;;;;;;4.17;2.23;;;22.10;69.10;;;;;;5068049;28;20233;-43
2023/05/07 11:29:23;;;;;;;5.73;2.50;;;22.10;69.40;;;;;;5067942;28;20193;-43
2023/05/07 11:32:00;;;;;;;3.13;2.07;;;22.10;69.30;;;;;;5054776;28;20271;-43
2023/05/07 11:34:36;;;;;;;4.53;2.53;;;22.10;69.50;;;;;;5066629;28;20267;-43
2023/05/07 11:37:12;;;;;;;5.00;2.20;;;22.10;69.70;;;;;;5053090;28;20214;-43
2023/05/07 11:39:43;;;;;;;5.97;2.53;;;22.10;69.60;;;;;;5053794;28;20193;-43
2023/05/07 11:42:33;;;;;;;3.20;2.30;;;22.20;69.70;;;;;;5065586;28;20589;-43
2023/05/07 11:45:11;;;;;;;3.80;2.20;;;22.20;69.30;;;;;;5057754;28;20201;-45
2023/05/07 11:47:42;;;;;;;3.00;2.20;;;22.20;70.00;;;;;;5067148;28;20220;-43
2023/05/07 11:50:14;;;;;;;2.83;2.10;;;22.20;69.90;;;;;;5065701;28;20271;-43
2023/05/07 11:52:52;;;;;;;3.37;2.10;;;22.20;70.10;;;;;;5072344;28;20654;-43
2023/05/07 11:55:24;;;;;;;3.63;2.10;;;22.20;70.10;;;;;;5074754;28;20229;-43
2023/05/07 11:57:53;;;;;;;3.40;2.30;;;22.20;69.90;;;;;;5049365;28;20221;-43
2023/05/07 12:00:22;;;;;;;2.43;1.90;;;22.20;70.30;;;;;;5070418;28;20635;-43
2023/05/07 12:03:22;;;;;;;3.07;2.23;;;22.20;70.30;;;;;;5070816;28;20301;-43
2023/05/07 12:05:51;;;;;;;2.37;1.83;;;22.30;70.30;;;;;;5047291;28;20193;-43
2023/05/07 12:08:23;;;;;;;2.57;1.77;;;22.20;70.70;;;;;;5065197;28;20202;-43
2023/05/07 12:10:54;;;;;;;3.87;2.17;;;22.30;70.50;;;;;;5049842;28;20296;-43
2023/05/07 12:13:28;;;;;;;3.23;2.27;;;22.30;71.00;;;;;;5075358;28;20247;-43
2023/05/07 12:15:57;;;;;;;3.30;1.90;;;22.30;70.70;;;;;;5053853;28;20208;-43
2023/05/07 12:18:35;;;;;;;2.83;2.10;;;22.30;70.50;;;;;;5074322;28;20263;-43
2023/05/07 12:21:04;;;;;;;3.80;2.20;;;22.30;71.00;;;;;;5054901;28;20618;-43
2023/05/07 12:23:34;;;;;;;2.73;2.10;;;22.30;70.80;;;;;;5063216;28;20209;-43
2023/05/07 12:26:19;;;;;;;4.00;2.10;;;22.30;70.90;;;;;;5066645;28;20296;-43
2023/05/07 12:28:51;;;;;;;3.00;1.93;;;22.30;71.60;;;;;;5088419;28;20201;-44
2023/05/07 12:31:18;;;;;;;3.07;2.13;;;22.30;71.00;;;;;;5072531;28;20200;-43
2023/05/07 12:33:48;;;;;;;2.33;2.03;;;22.40;71.40;;;;;;5054195;28;20192;-43
2023/05/07 12:36:16;;;;;;;4.10;2.20;;;22.40;70.80;;;;;;5055619;28;20301;-43
2023/05/07 12:38:54;;;;;;;2.10;1.70;;;22.40;71.50;;;;;;5082397;28;20217;-43
2023/05/07 12:41:29;;;;;;;2.37;1.80;;;22.40;71.10;;;;;;5074238;28;20197;-43
2023/05/07 12:44:00;;;;;;;2.03;1.80;;;22.40;71.20;;;;;;5070936;28;20201;-43
2023/05/07 12:46:38;;;;;;;2.57;1.80;;;22.40;71.30;;;;;;5072363;28;20638;-43
2023/05/07 12:49:09;;;;;;;4.23;1.90;;;22.40;71.30;;;;;;5074309;28;20231;-43
2023/05/07 12:51:36;;;;;;;1.93;1.60;;;22.40;71.40;;;;;;5056665;28;20216;-43
2023/05/07 12:54:11;;;;;;;3.20;1.83;;;22.40;71.40;;;;;;5051184;28;20400;-43
2023/05/07 12:56:46;;;;;;;2.23;1.80;;;22.40;71.50;;;;;;5058410;28;20201;-45
2023/05/07 12:59:16;;;;;;;2.00;1.77;;;22.40;71.80;;;;;;5062629;28;20237;-45
2023/05/07 13:01:46;;;;;;;3.00;1.93;;;22.40;71.50;;;;;;5076881;28;20201;-45
2023/05/07 13:04:18;;;;;;;2.33;2.00;;;22.50;71.90;;;;;;5070543;28;20193;-45
2023/05/07 13:06:48;;;;;;;3.10;1.60;;;22.40;72.00;;;;;;5074934;28;20212;-45
2023/05/07 13:09:18;;;;;;;3.47;1.60;;;22.40;71.20;;;;;;5072861;28;20200;-45
2023/05/07 13:11:50;;;;;;;3.77;1.90;;;22.50;70.80;;;;;;5062309;28;20206;-45
2023/05/07 13:14:23;;;;;;;1.43;1.33;;;22.50;71.40;;;;;;5070617;28;20646;-45
2023/05/07 13:16:54;;;;;;;1.93;1.40;;;22.50;71.50;;;;;;5071636;28;20190;-44
2023/05/07 13:19:26;;;;;;;3.93;1.50;;;22.50;71.70;;;;;;5071385;28;20275;-44